sensor_id;sensor_type;location;lat;lon;timestamp;pressure;altitude;pressure_sealevel;temperature;humidity
59110;BME280;44895;47.438;18.978;2023-07-31T00:01:48;99707.66;;;18.87;100.00
59110;BME280;44895;47.438;18.978;2023-07-31T00:04:52;99708.97;;;18.94;100.00
59110;BME280;44895;47.438;18.978;2023-07-31T00:07:56;99712.09;;;18.92;100.00
59110;BME280;44895;47.438;18.978;2023-07-31T00:11:00;99705.31;;;18.89;100.00
59110;BME280;44895;47.438;18.978;2023-07-31T00:14:03;99707.13;;;18.98;100.00
59110;BME280;44895;47.438;18.978;2023-07-31T00:17:07;99696.41;;;18.93;100.00
59110;BME280;44895;47.438;18.978;2023-07-31T00:20:10;99707.47;;;18.96;100.00
59110;BME280;44895;47.438;18.978;2023-07-31T00:23:15;99713.06;;;19.00;100.00
59110;BME280;44895;47.438;18.978;2023-07-31T00:26:18;99714.47;;;18.94;100.00
59110;BME280;44895;47.438;18.978;2023-07-31T00:29:22;99716.25;;;19.02;100.00
59110;BME280;44895;47.438;18.978;2023-07-31T00:32:26;99719.88;;;19.06;100.00
59110;BME280;44895;47.438;18.978;2023-07-31T00:35:29;99716.25;;;19.02;100.00
59110;BME280;44895;47.438;18.978;2023-07-31T00:38:33;99722.19;;;19.04;100.00
59110;BME280;44895;47.438;18.978;2023-07-31T00:41:37;99716.69;;;19.04;100.00
59110;BME280;44895;47.438;18.978;2023-07-31T00:44:41;99718.28;;;19.05;100.00
59110;BME280;44895;47.438;18.978;2023-07-31T00:47:45;99721.31;;;19.00;100.00
59110;BME280;44895;47.438;18.978;2023-07-31T00:50:48;99719.44;;;19.04;100.00
59110;BME280;44895;47.438;18.978;2023-07-31T00:53:52;99727.63;;;19.00;100.00
59110;BME280;44895;47.438;18.978;2023-07-31T00:56:57;99719.19;;;18.93;100.00
59110;BME280;44895;47.438;18.978;2023-07-31T01:00:01;99721.41;;;18.87;100.00
59110;BME280;44895;47.438;18.978;2023-07-31T01:03:06;99722.31;;;18.92;100.00
59110;BME280;44895;47.438;18.978;2023-07-31T01:06:14;99718.75;;;18.91;100.00
59110;BME280;44895;47.438;18.978;2023-07-31T01:09:49;99723.34;;;18.87;100.00
59110;BME280;44895;47.438;18.978;2023-07-31T01:12:56;99724.16;;;18.87;100.00
59110;BME280;44895;47.438;18.978;2023-07-31T01:16:01;99725.69;;;18.85;100.00
59110;BME280;44895;47.438;18.978;2023-07-31T01:19:06;99739.78;;;18.83;100.00
59110;BME280;44895;47.438;18.978;2023-07-31T01:22:45;99749.13;;;18.79;100.00
59110;BME280;44895;47.438;18.978;2023-07-31T01:32:19;99743.63;;;18.79;100.00
59110;BME280;44895;47.438;18.978;2023-07-31T01:35:23;99733.69;;;18.74;100.00
59110;BME280;44895;47.438;18.978;2023-07-31T01:38:28;99741.06;;;18.70;100.00
59110;BME280;44895;47.438;18.978;2023-07-31T01:41:32;99743.06;;;18.73;100.00
59110;BME280;44895;47.438;18.978;2023-07-31T01:44:35;99735.81;;;18.65;100.00
59110;BME280;44895;47.438;18.978;2023-07-31T01:47:42;99731.84;;;18.62;100.00
59110;BME280;44895;47.438;18.978;2023-07-31T01:50:46;99721.91;;;18.57;100.00
59110;BME280;44895;47.438;18.978;2023-07-31T01:53:49;99715.53;;;18.53;100.00
59110;BME280;44895;47.438;18.978;2023-07-31T01:56:53;99713.28;;;18.59;100.00
59110;BME280;44895;47.438;18.978;2023-07-31T01:59:57;99724.28;;;18.59;100.00
59110;BME280;44895;47.438;18.978;2023-07-31T02:03:01;99730.50;;;18.56;100.00
59110;BME280;44895;47.438;18.978;2023-07-31T02:06:05;99725.56;;;18.46;100.00
59110;BME280;44895;47.438;18.978;2023-07-31T02:09:09;99733.63;;;18.38;100.00
59110;BME280;44895;47.438;18.978;2023-07-31T02:12:12;99742.50;;;18.32;100.00
59110;BME280;44895;47.438;18.978;2023-07-31T02:15:17;99743.91;;;18.25;100.00
59110;BME280;44895;47.438;18.978;2023-07-31T02:18:22;99749.31;;;18.22;100.00
59110;BME280;44895;47.438;18.978;2023-07-31T02:21:26;99733.88;;;18.17;100.00
59110;BME280;44895;47.438;18.978;2023-07-31T02:24:30;99745.47;;;18.11;100.00
59110;BME280;44895;47.438;18.978;2023-07-31T02:27:35;99748.31;;;17.86;100.00
59110;BME280;44895;47.438;18.978;2023-07-31T02:30:39;99761.16;;;17.82;100.00
59110;BME280;44895;47.438;18.978;2023-07-31T02:33:43;99764.00;;;17.85;100.00
59110;BME280;44895;47.438;18.978;2023-07-31T02:36:47;99755.78;;;17.85;100.00
59110;BME280;44895;47.438;18.978;2023-07-31T02:39:51;99774.16;;;17.69;100.00
59110;BME280;44895;47.438;18.978;2023-07-31T02:42:55;99767.59;;;17.45;100.00
59110;BME280;44895;47.438;18.978;2023-07-31T02:45:59;99765.31;;;17.47;100.00
59110;BME280;44895;47.438;18.978;2023-07-31T02:49:04;99778.47;;;17.41;100.00
59110;BME280;44895;47.438;18.978;2023-07-31T02:52:07;99793.03;;;17.30;100.00
59110;BME280;44895;47.438;18.978;2023-07-31T02:55:11;99794.53;;;17.15;100.00
59110;BME280;44895;47.438;18.978;2023-07-31T02:58:15;99799.00;;;17.07;100.00
59110;BME280;44895;47.438;18.978;2023-07-31T03:01:19;99786.88;;;17.08;100.00
59110;BME280;44895;47.438;18.978;2023-07-31T03:04:23;99798.09;;;17.03;100.00
59110;BME280;44895;47.438;18.978;2023-07-31T03:07:26;99786.09;;;16.95;100.00
59110;BME280;44895;47.438;18.978;2023-07-31T03:10:30;99799.09;;;16.98;100.00
59110;BME280;44895;47.438;18.978;2023-07-31T03:13:34;99798.09;;;17.03;100.00
59110;BME280;44895;47.438;18.978;2023-07-31T03:16:38;99796.59;;;17.05;100.00
59110;BME280;44895;47.438;18.978;2023-07-31T03:19:41;99802.19;;;17.09;100.00
59110;BME280;44895;47.438;18.978;2023-07-31T03:22:45;99798.16;;;17.31;100.00
59110;BME280;44895;47.438;18.978;2023-07-31T03:25:57;99798.81;;;17.40;100.00
59110;BME280;44895;47.438;18.978;2023-07-31T03:29:01;99793.00;;;17.42;100.00
59110;BME280;44895;47.438;18.978;2023-07-31T03:32:05;99792.31;;;17.33;100.00
59110;BME280;44895;47.438;18.978;2023-07-31T03:35:09;99805.72;;;17.34;100.00
59110;BME280;44895;47.438;18.978;2023-07-31T03:38:13;99809.25;;;17.35;100.00
59110;BME280;44895;47.438;18.978;2023-07-31T03:41:17;99807.34;;;17.10;100.00
59110;BME280;44895;47.438;18.978;2023-07-31T03:44:22;99817.63;;;17.14;100.00
59110;BME280;44895;47.438;18.978;2023-07-31T03:47:26;99813.38;;;17.16;100.00
59110;BME280;44895;47.438;18.978;2023-07-31T03:50:30;99804.34;;;16.91;100.00
59110;BME280;44895;47.438;18.978;2023-07-31T03:53:33;99814.53;;;17.03;100.00
59110;BME280;44895;47.438;18.978;2023-07-31T03:56:37;99820.47;;;17.30;100.00
59110;BME280;44895;47.438;18.978;2023-07-31T03:59:42;99810.16;;;17.39;100.00
59110;BME280;44895;47.438;18.978;2023-07-31T04:02:45;99809.91;;;17.44;100.00
59110;BME280;44895;47.438;18.978;2023-07-31T04:05:49;99801.72;;;17.72;100.00
59110;BME280;44895;47.438;18.978;2023-07-31T04:08:53;99797.44;;;17.87;100.00
59110;BME280;44895;47.438;18.978;2023-07-31T04:11:57;99803.69;;;18.00;100.00
59110;BME280;44895;47.438;18.978;2023-07-31T04:15:01;99801.69;;;18.13;100.00
59110;BME280;44895;47.438;18.978;2023-07-31T04:18:06;99795.22;;;18.21;100.00
59110;BME280;44895;47.438;18.978;2023-07-31T04:21:09;99788.75;;;18.30;100.00
59110;BME280;44895;47.438;18.978;2023-07-31T04:24:13;99795.88;;;18.31;100.00
59110;BME280;44895;47.438;18.978;2023-07-31T04:27:17;99795.31;;;18.25;100.00
59110;BME280;44895;47.438;18.978;2023-07-31T04:30:21;99795.34;;;18.41;100.00
59110;BME280;44895;47.438;18.978;2023-07-31T04:33:24;99792.13;;;18.39;100.00
59110;BME280;44895;47.438;18.978;2023-07-31T04:36:28;99801.09;;;18.52;100.00
59110;BME280;44895;47.438;18.978;2023-07-31T04:39:31;99794.53;;;18.56;100.00
59110;BME280;44895;47.438;18.978;2023-07-31T04:42:35;99785.03;;;18.38;100.00
59110;BME280;44895;47.438;18.978;2023-07-31T04:45:39;99800.31;;;18.51;100.00
59110;BME280;44895;47.438;18.978;2023-07-31T04:48:43;99795.25;;;18.53;100.00
59110;BME280;44895;47.438;18.978;2023-07-31T04:51:46;99794.88;;;18.39;100.00
59110;BME280;44895;47.438;18.978;2023-07-31T04:54:50;99798.25;;;18.64;100.00
59110;BME280;44895;47.438;18.978;2023-07-31T04:57:54;99811.31;;;18.51;100.00
59110;BME280;44895;47.438;18.978;2023-07-31T05:00:58;99810.97;;;18.69;100.00
59110;BME280;44895;47.438;18.978;2023-07-31T05:04:02;99806.69;;;19.03;100.00
59110;BME280;44895;47.438;18.978;2023-07-31T05:07:06;99813.53;;;19.10;100.00
59110;BME280;44895;47.438;18.978;2023-07-31T05:10:09;99813.59;;;19.29;100.00
59110;BME280;44895;47.438;18.978;2023-07-31T05:13:13;99812.06;;;19.51;100.00
59110;BME280;44895;47.438;18.978;2023-07-31T05:16:17;99798.97;;;19.64;100.00
59110;BME280;44895;47.438;18.978;2023-07-31T05:19:21;99806.13;;;19.49;100.00
59110;BME280;44895;47.438;18.978;2023-07-31T05:22:24;99803.41;;;19.69;100.00
59110;BME280;44895;47.438;18.978;2023-07-31T05:25:28;99800.28;;;19.70;100.00
59110;BME280;44895;47.438;18.978;2023-07-31T05:28:34;99816.34;;;19.68;100.00
59110;BME280;44895;47.438;18.978;2023-07-31T05:31:38;99821.06;;;19.68;100.00
59110;BME280;44895;47.438;18.978;2023-07-31T05:34:42;99813.25;;;19.70;100.00
59110;BME280;44895;47.438;18.978;2023-07-31T05:37:46;99822.34;;;20.33;100.00
59110;BME280;44895;47.438;18.978;2023-07-31T05:40:50;99819.13;;;21.24;100.00
59110;BME280;44895;47.438;18.978;2023-07-31T05:43:53;99815.81;;;23.44;100.00
59110;BME280;44895;47.438;18.978;2023-07-31T05:46:57;99821.69;;;22.79;100.00
59110;BME280;44895;47.438;18.978;2023-07-31T05:50:01;99817.13;;;22.53;100.00
59110;BME280;44895;47.438;18.978;2023-07-31T05:53:05;99824.09;;;21.41;100.00
59110;BME280;44895;47.438;18.978;2023-07-31T05:56:09;99811.94;;;27.07;86.28
59110;BME280;44895;47.438;18.978;2023-07-31T05:59:13;99805.69;;;31.04;53.72
59110;BME280;44895;47.438;18.978;2023-07-31T06:02:18;99810.97;;;32.16;47.33
59110;BME280;44895;47.438;18.978;2023-07-31T06:05:22;99816.88;;;32.70;44.49
59110;BME280;44895;47.438;18.978;2023-07-31T06:08:25;99813.91;;;31.28;43.97
59110;BME280;44895;47.438;18.978;2023-07-31T06:11:29;99806.34;;;28.41;50.11
59110;BME280;44895;47.438;18.978;2023-07-31T06:14:33;99810.38;;;30.78;48.00
59110;BME280;44895;47.438;18.978;2023-07-31T06:17:36;99810.59;;;32.79;42.46
59110;BME280;44895;47.438;18.978;2023-07-31T06:20:40;99814.81;;;36.79;35.86
59110;BME280;44895;47.438;18.978;2023-07-31T06:23:45;99818.75;;;37.05;35.95
59110;BME280;44895;47.438;18.978;2023-07-31T06:26:49;99811.84;;;37.21;34.47
59110;BME280;44895;47.438;18.978;2023-07-31T06:29:54;99808.09;;;37.00;34.09
59110;BME280;44895;47.438;18.978;2023-07-31T06:32:57;99804.19;;;36.73;34.10
59110;BME280;44895;47.438;18.978;2023-07-31T06:36:01;99810.63;;;32.40;39.04
59110;BME280;44895;47.438;18.978;2023-07-31T06:39:05;99814.91;;;30.39;42.82
59110;BME280;44895;47.438;18.978;2023-07-31T06:42:09;99819.31;;;29.83;45.28
59110;BME280;44895;47.438;18.978;2023-07-31T06:45:13;99827.13;;;27.02;51.45
59110;BME280;44895;47.438;18.978;2023-07-31T06:48:17;99831.63;;;26.32;57.09
59110;BME280;44895;47.438;18.978;2023-07-31T06:51:21;99830.78;;;25.54;62.00
59110;BME280;44895;47.438;18.978;2023-07-31T06:54:24;99841.56;;;24.43;72.06
59110;BME280;44895;47.438;18.978;2023-07-31T06:57:28;99839.09;;;24.13;77.38
59110;BME280;44895;47.438;18.978;2023-07-31T07:00:32;99844.06;;;23.71;80.97
59110;BME280;44895;47.438;18.978;2023-07-31T07:03:35;99851.38;;;24.08;82.24
59110;BME280;44895;47.438;18.978;2023-07-31T07:06:39;99856.34;;;23.77;82.46
59110;BME280;44895;47.438;18.978;2023-07-31T07:09:43;99861.78;;;23.52;89.75
59110;BME280;44895;47.438;18.978;2023-07-31T07:12:47;99860.41;;;23.21;93.38
59110;BME280;44895;47.438;18.978;2023-07-31T07:15:51;99865.03;;;23.72;89.03
59110;BME280;44895;47.438;18.978;2023-07-31T07:18:54;99860.97;;;24.51;82.38
59110;BME280;44895;47.438;18.978;2023-07-31T07:21:58;99853.84;;;26.40;66.38
59110;BME280;44895;47.438;18.978;2023-07-31T07:25:05;99861.06;;;26.90;58.58
59110;BME280;44895;47.438;18.978;2023-07-31T07:28:10;99860.56;;;25.61;65.29
59110;BME280;44895;47.438;18.978;2023-07-31T07:31:14;99868.88;;;24.52;67.06
59110;BME280;44895;47.438;18.978;2023-07-31T07:34:18;99866.94;;;24.60;71.45
59110;BME280;44895;47.438;18.978;2023-07-31T07:37:22;99871.72;;;25.14;72.18
59110;BME280;44895;47.438;18.978;2023-07-31T07:40:25;99857.06;;;26.31;65.64
59110;BME280;44895;47.438;18.978;2023-07-31T07:43:29;99852.56;;;24.07;72.51
59110;BME280;44895;47.438;18.978;2023-07-31T07:46:33;99867.09;;;23.90;74.39
59110;BME280;44895;47.438;18.978;2023-07-31T07:49:36;99866.44;;;23.34;73.78
59110;BME280;44895;47.438;18.978;2023-07-31T07:52:40;99873.97;;;23.37;79.15
59110;BME280;44895;47.438;18.978;2023-07-31T07:55:44;99859.50;;;23.72;75.72
59110;BME280;44895;47.438;18.978;2023-07-31T07:58:49;99857.66;;;23.94;74.32
59110;BME280;44895;47.438;18.978;2023-07-31T08:01:53;99848.56;;;24.01;75.65
59110;BME280;44895;47.438;18.978;2023-07-31T08:04:57;99860.91;;;24.22;74.50
59110;BME280;44895;47.438;18.978;2023-07-31T08:08:00;99857.28;;;24.00;73.58
59110;BME280;44895;47.438;18.978;2023-07-31T08:11:04;99858.13;;;24.25;68.00
59110;BME280;44895;47.438;18.978;2023-07-31T08:14:08;99854.25;;;24.63;66.74
59110;BME280;44895;47.438;18.978;2023-07-31T08:17:12;99865.31;;;24.48;64.51
59110;BME280;44895;47.438;18.978;2023-07-31T08:20:16;99858.25;;;24.90;62.12
59110;BME280;44895;47.438;18.978;2023-07-31T08:23:19;99845.91;;;25.20;62.13
59110;BME280;44895;47.438;18.978;2023-07-31T08:26:23;99850.19;;;24.06;64.38
59110;BME280;44895;47.438;18.978;2023-07-31T08:29:30;99854.06;;;23.94;66.79
59110;BME280;44895;47.438;18.978;2023-07-31T08:32:34;99848.88;;;23.89;68.21
59110;BME280;44895;47.438;18.978;2023-07-31T08:35:38;99852.44;;;23.86;66.29
59110;BME280;44895;47.438;18.978;2023-07-31T08:38:42;99852.75;;;23.70;68.03
59110;BME280;44895;47.438;18.978;2023-07-31T08:41:45;99856.59;;;23.43;67.64
59110;BME280;44895;47.438;18.978;2023-07-31T08:44:49;99852.34;;;23.64;66.73
59110;BME280;44895;47.438;18.978;2023-07-31T08:47:54;99855.47;;;23.55;64.17
59110;BME280;44895;47.438;18.978;2023-07-31T08:50:59;99841.09;;;23.35;70.85
59110;BME280;44895;47.438;18.978;2023-07-31T08:54:03;99845.97;;;23.53;69.52
59110;BME280;44895;47.438;18.978;2023-07-31T08:57:09;99849.13;;;23.51;67.53
59110;BME280;44895;47.438;18.978;2023-07-31T09:00:14;99848.72;;;23.53;71.93
59110;BME280;44895;47.438;18.978;2023-07-31T09:03:18;99853.94;;;23.69;68.71
59110;BME280;44895;47.438;18.978;2023-07-31T09:06:25;99844.41;;;23.66;67.08
59110;BME280;44895;47.438;18.978;2023-07-31T09:09:31;99826.22;;;23.65;68.90
59110;BME280;44895;47.438;18.978;2023-07-31T09:12:35;99845.22;;;23.67;68.75
59110;BME280;44895;47.438;18.978;2023-07-31T09:15:40;99840.34;;;23.42;69.20
59110;BME280;44895;47.438;18.978;2023-07-31T09:18:55;99836.88;;;23.59;64.28
59110;BME280;44895;47.438;18.978;2023-07-31T09:22:00;99844.97;;;23.93;65.13
59110;BME280;44895;47.438;18.978;2023-07-31T09:25:23;99830.25;;;23.86;65.58
59110;BME280;44895;47.438;18.978;2023-07-31T09:28:31;99834.97;;;23.74;70.19
59110;BME280;44895;47.438;18.978;2023-07-31T09:31:42;99836.59;;;23.79;69.97
59110;BME280;44895;47.438;18.978;2023-07-31T09:34:46;99837.34;;;23.76;67.01
59110;BME280;44895;47.438;18.978;2023-07-31T09:37:51;99835.78;;;23.82;66.42
59110;BME280;44895;47.438;18.978;2023-07-31T09:40:58;99834.56;;;23.72;67.17
59110;BME280;44895;47.438;18.978;2023-07-31T09:44:02;99838.16;;;23.84;68.24
59110;BME280;44895;47.438;18.978;2023-07-31T09:47:06;99824.25;;;23.66;69.77
59110;BME280;44895;47.438;18.978;2023-07-31T09:50:10;99824.22;;;23.62;68.47
59110;BME280;44895;47.438;18.978;2023-07-31T09:53:15;99820.78;;;23.87;66.00
59110;BME280;44895;47.438;18.978;2023-07-31T09:56:21;99810.16;;;24.03;65.53
59110;BME280;44895;47.438;18.978;2023-07-31T09:59:26;99812.19;;;24.21;62.55
59110;BME280;44895;47.438;18.978;2023-07-31T10:02:31;99830.44;;;24.43;64.30
59110;BME280;44895;47.438;18.978;2023-07-31T10:06:02;99832.41;;;24.32;59.99
59110;BME280;44895;47.438;18.978;2023-07-31T10:09:10;99833.94;;;24.12;61.23
59110;BME280;44895;47.438;18.978;2023-07-31T10:12:17;99831.59;;;24.28;61.47
59110;BME280;44895;47.438;18.978;2023-07-31T10:15:23;99820.13;;;24.30;61.31
59110;BME280;44895;47.438;18.978;2023-07-31T10:18:27;99812.16;;;24.17;59.02
59110;BME280;44895;47.438;18.978;2023-07-31T10:21:32;99815.69;;;24.10;59.74
59110;BME280;44895;47.438;18.978;2023-07-31T10:24:39;99819.25;;;24.04;60.08
59110;BME280;44895;47.438;18.978;2023-07-31T10:27:44;99829.25;;;24.37;61.87
59110;BME280;44895;47.438;18.978;2023-07-31T10:30:50;99805.88;;;24.53;63.05
59110;BME280;44895;47.438;18.978;2023-07-31T10:33:58;99814.63;;;24.66;61.93
59110;BME280;44895;47.438;18.978;2023-07-31T10:37:27;99814.63;;;24.77;60.26
59110;BME280;44895;47.438;18.978;2023-07-31T10:40:31;99807.09;;;24.88;59.82
59110;BME280;44895;47.438;18.978;2023-07-31T10:43:39;99797.56;;;24.85;59.65
59110;BME280;44895;47.438;18.978;2023-07-31T10:46:45;99793.91;;;25.24;59.64
59110;BME280;44895;47.438;18.978;2023-07-31T10:49:49;99804.72;;;24.79;61.16
59110;BME280;44895;47.438;18.978;2023-07-31T10:52:55;99792.00;;;25.00;60.17
59110;BME280;44895;47.438;18.978;2023-07-31T10:56:04;99801.88;;;25.19;60.42
59110;BME280;44895;47.438;18.978;2023-07-31T10:59:08;99789.94;;;25.36;57.97
59110;BME280;44895;47.438;18.978;2023-07-31T11:02:26;99798.19;;;25.62;57.66
59110;BME280;44895;47.438;18.978;2023-07-31T11:05:44;99788.72;;;25.45;54.08
59110;BME280;44895;47.438;18.978;2023-07-31T11:08:50;99791.50;;;25.48;53.56
59110;BME280;44895;47.438;18.978;2023-07-31T11:11:54;99779.59;;;25.48;53.09
59110;BME280;44895;47.438;18.978;2023-07-31T11:14:59;99788.31;;;25.50;51.46
59110;BME280;44895;47.438;18.978;2023-07-31T11:18:03;99782.72;;;25.61;51.12
59110;BME280;44895;47.438;18.978;2023-07-31T11:21:08;99765.16;;;25.75;52.00
59110;BME280;44895;47.438;18.978;2023-07-31T11:24:12;99774.66;;;25.88;51.16
59110;BME280;44895;47.438;18.978;2023-07-31T11:27:16;99773.13;;;25.72;49.44
59110;BME280;44895;47.438;18.978;2023-07-31T11:30:20;99792.56;;;25.76;49.81
59110;BME280;44895;47.438;18.978;2023-07-31T11:33:23;99778.53;;;25.98;49.31
59110;BME280;44895;47.438;18.978;2023-07-31T11:36:27;99776.94;;;26.00;49.76
59110;BME280;44895;47.438;18.978;2023-07-31T11:39:31;99765.03;;;25.96;49.19
59110;BME280;44895;47.438;18.978;2023-07-31T11:42:35;99769.81;;;25.99;48.59
59110;BME280;44895;47.438;18.978;2023-07-31T11:45:39;99772.25;;;25.86;48.08
59110;BME280;44895;47.438;18.978;2023-07-31T11:48:43;99771.78;;;26.06;48.19
59110;BME280;44895;47.438;18.978;2023-07-31T11:51:47;99757.03;;;26.13;48.44
59110;BME280;44895;47.438;18.978;2023-07-31T11:54:50;99759.44;;;26.03;47.20
59110;BME280;44895;47.438;18.978;2023-07-31T11:57:57;99764.44;;;26.30;47.72
59110;BME280;44895;47.438;18.978;2023-07-31T12:01:02;99764.00;;;26.39;47.84
59110;BME280;44895;47.438;18.978;2023-07-31T12:04:06;99755.34;;;26.26;46.27
59110;BME280;44895;47.438;18.978;2023-07-31T12:07:10;99753.00;;;26.21;47.70
59110;BME280;44895;47.438;18.978;2023-07-31T12:10:24;99754.28;;;26.02;45.67
59110;BME280;44895;47.438;18.978;2023-07-31T12:13:27;99764.41;;;26.37;46.27
59110;BME280;44895;47.438;18.978;2023-07-31T12:16:32;99748.19;;;26.25;46.62
59110;BME280;44895;47.438;18.978;2023-07-31T12:19:36;99750.66;;;26.16;46.37
59110;BME280;44895;47.438;18.978;2023-07-31T12:22:41;99734.75;;;26.13;47.84
59110;BME280;44895;47.438;18.978;2023-07-31T12:25:45;99734.72;;;26.20;47.37
59110;BME280;44895;47.438;18.978;2023-07-31T12:28:50;99743.34;;;26.36;47.62
59110;BME280;44895;47.438;18.978;2023-07-31T12:31:54;99749.56;;;25.92;46.34
59110;BME280;44895;47.438;18.978;2023-07-31T12:35:01;99734.81;;;26.02;47.43
59110;BME280;44895;47.438;18.978;2023-07-31T12:38:05;99739.69;;;25.87;47.53
59110;BME280;44895;47.438;18.978;2023-07-31T12:41:09;99734.13;;;25.87;48.31
59110;BME280;44895;47.438;18.978;2023-07-31T12:44:13;99731.59;;;26.11;47.52
59110;BME280;44895;47.438;18.978;2023-07-31T12:47:16;99732.00;;;26.09;47.62
59110;BME280;44895;47.438;18.978;2023-07-31T12:50:21;99723.69;;;26.05;48.34
59110;BME280;44895;47.438;18.978;2023-07-31T12:53:24;99722.09;;;26.04;48.76
59110;BME280;44895;47.438;18.978;2023-07-31T12:56:28;99706.56;;;26.11;48.67
59110;BME280;44895;47.438;18.978;2023-07-31T12:59:32;99702.84;;;26.28;48.37
59110;BME280;44895;47.438;18.978;2023-07-31T13:02:36;99712.34;;;26.34;48.09
59110;BME280;44895;47.438;18.978;2023-07-31T13:05:39;99691.88;;;26.03;47.99
59110;BME280;44895;47.438;18.978;2023-07-31T13:08:43;99703.88;;;25.93;47.99
59110;BME280;44895;47.438;18.978;2023-07-31T13:11:47;99713.84;;;25.86;47.95
59110;BME280;44895;47.438;18.978;2023-07-31T13:14:51;99702.50;;;25.63;47.50
59110;BME280;44895;47.438;18.978;2023-07-31T13:17:54;99698.00;;;25.83;48.21
59110;BME280;44895;47.438;18.978;2023-07-31T13:20:58;99687.88;;;26.11;48.28
59110;BME280;44895;47.438;18.978;2023-07-31T13:24:02;99691.00;;;26.17;48.61
59110;BME280;44895;47.438;18.978;2023-07-31T13:27:07;99692.69;;;26.03;47.50
59110;BME280;44895;47.438;18.978;2023-07-31T13:30:11;99695.84;;;26.05;48.05
59110;BME280;44895;47.438;18.978;2023-07-31T13:33:15;99688.16;;;25.68;48.52
59110;BME280;44895;47.438;18.978;2023-07-31T13:36:19;99691.56;;;25.94;48.29
59110;BME280;44895;47.438;18.978;2023-07-31T13:39:22;99683.22;;;25.94;48.00
59110;BME280;44895;47.438;18.978;2023-07-31T13:42:26;99664.19;;;25.85;48.58
59110;BME280;44895;47.438;18.978;2023-07-31T13:45:32;99678.91;;;25.85;48.25
59110;BME280;44895;47.438;18.978;2023-07-31T13:48:36;99680.88;;;25.88;47.83
59110;BME280;44895;47.438;18.978;2023-07-31T13:51:39;99681.22;;;25.94;48.23
59110;BME280;44895;47.438;18.978;2023-07-31T13:54:45;99679.56;;;26.00;47.99
59110;BME280;44895;47.438;18.978;2023-07-31T13:57:49;99667.41;;;25.83;47.56
59110;BME280;44895;47.438;18.978;2023-07-31T14:00:53;99673.16;;;25.47;48.89
59110;BME280;44895;47.438;18.978;2023-07-31T14:03:57;99664.41;;;25.52;48.27
59110;BME280;44895;47.438;18.978;2023-07-31T14:07:02;99656.78;;;25.67;47.83
59110;BME280;44895;47.438;18.978;2023-07-31T14:10:07;99666.38;;;25.55;48.38
59110;BME280;44895;47.438;18.978;2023-07-31T14:13:11;99668.31;;;25.66;48.38
59110;BME280;44895;47.438;18.978;2023-07-31T14:16:14;99665.97;;;25.57;48.99
59110;BME280;44895;47.438;18.978;2023-07-31T14:19:18;99653.31;;;25.49;47.93
59110;BME280;44895;47.438;18.978;2023-07-31T14:22:31;99653.38;;;25.34;49.56
59110;BME280;44895;47.438;18.978;2023-07-31T14:25:36;99660.50;;;25.43;49.44
59110;BME280;44895;47.438;18.978;2023-07-31T14:28:40;99648.53;;;25.49;49.45
59110;BME280;44895;47.438;18.978;2023-07-31T14:31:44;99650.13;;;25.54;49.20
59110;BME280;44895;47.438;18.978;2023-07-31T14:34:49;99651.66;;;25.59;48.65
59110;BME280;44895;47.438;18.978;2023-07-31T14:37:52;99643.59;;;25.79;48.96
59110;BME280;44895;47.438;18.978;2023-07-31T14:40:56;99648.09;;;26.14;49.10
59110;BME280;44895;47.438;18.978;2023-07-31T14:44:00;99646.88;;;26.19;48.74
59110;BME280;44895;47.438;18.978;2023-07-31T14:47:04;99644.56;;;26.10;48.07
59110;BME280;44895;47.438;18.978;2023-07-31T14:50:08;99630.66;;;26.10;48.09
59110;BME280;44895;47.438;18.978;2023-07-31T14:53:12;99631.31;;;26.25;47.95
59110;BME280;44895;47.438;18.978;2023-07-31T14:56:16;99626.63;;;26.18;48.49
59110;BME280;44895;47.438;18.978;2023-07-31T14:59:20;99623.25;;;25.89;47.57
59110;BME280;44895;47.438;18.978;2023-07-31T15:02:25;99626.16;;;25.71;48.00
59110;BME280;44895;47.438;18.978;2023-07-31T15:05:30;99609.88;;;25.73;47.76
59110;BME280;44895;47.438;18.978;2023-07-31T15:08:33;99615.38;;;25.80;49.02
59110;BME280;44895;47.438;18.978;2023-07-31T15:11:37;99617.28;;;25.91;48.72
59110;BME280;44895;47.438;18.978;2023-07-31T15:14:41;99617.38;;;25.76;47.91
59110;BME280;44895;47.438;18.978;2023-07-31T15:17:45;99612.22;;;25.78;48.40
59110;BME280;44895;47.438;18.978;2023-07-31T15:20:48;99619.47;;;25.61;48.49
59110;BME280;44895;47.438;18.978;2023-07-31T15:23:52;99614.47;;;25.38;48.34
59110;BME280;44895;47.438;18.978;2023-07-31T15:26:56;99610.84;;;25.48;48.05
59110;BME280;44895;47.438;18.978;2023-07-31T15:29:59;99601.31;;;25.49;48.60
59110;BME280;44895;47.438;18.978;2023-07-31T15:33:03;99611.28;;;25.39;48.04
59110;BME280;44895;47.438;18.978;2023-07-31T15:36:07;99611.31;;;25.32;48.06
59110;BME280;44895;47.438;18.978;2023-07-31T15:39:11;99602.13;;;25.46;47.38
59110;BME280;44895;47.438;18.978;2023-07-31T15:42:15;99594.19;;;25.45;47.50
59110;BME280;44895;47.438;18.978;2023-07-31T15:45:18;99587.44;;;25.42;47.56
59110;BME280;44895;47.438;18.978;2023-07-31T15:48:22;99593.47;;;25.30;47.70
59110;BME280;44895;47.438;18.978;2023-07-31T15:51:26;99583.91;;;25.34;48.65
59110;BME280;44895;47.438;18.978;2023-07-31T15:54:29;99586.31;;;25.32;49.45
59110;BME280;44895;47.438;18.978;2023-07-31T15:57:33;99580.75;;;25.29;50.12
59110;BME280;44895;47.438;18.978;2023-07-31T16:00:37;99581.53;;;25.33;49.41
59110;BME280;44895;47.438;18.978;2023-07-31T16:03:41;99583.91;;;25.31;49.64
59110;BME280;44895;47.438;18.978;2023-07-31T16:06:44;99579.56;;;25.30;49.49